Wandering River, Canada
Current Conditions -  °F | °C
As of 10:00 AM on Thursday 30 Oct 2014 (Local Time) from CYZH Reporting Station
Haze Haze  
Wind Chill: 25°   Ceiling: 1000
Heat Index: 34°   Visibility: 5mi
Dew Point: 32°   Wind: 13mph
Humidity: 93%   Direction: 100°E
Pressure: 30.16"   Gusts: 22mph
Location:  55.2°N, 112.47°W
Report Text: CYZH 301600Z AUTO 10011G19KT 5SM BR OVC010 01/00 A3016 RMK SLP240
Loading
Personal Weather Stations






























Interactive Weather Map
Tropical Storm Tracking
New forecast layout! Learn more

10-Day Weather Forecast

Advertisements
Track Severe Weather on mobile